createdAt,value
2023-02-14T00:00:49.020Z,8.85
2023-02-14T00:03:16.087Z,8.75
2023-02-14T00:05:42.779Z,8.67
2023-02-14T00:08:09.462Z,8.61
2023-02-14T00:10:36.141Z,8.59
2023-02-14T00:13:03.324Z,8.57
2023-02-14T00:15:30.023Z,8.53
2023-02-14T00:17:59.871Z,8.51
2023-02-14T00:20:28.181Z,8.50
2023-02-14T00:22:55.146Z,8.53
2023-02-14T00:25:22.135Z,8.49
2023-02-14T00:27:48.916Z,8.41
2023-02-14T00:30:15.777Z,8.37
2023-02-14T00:32:43.205Z,8.32
2023-02-14T00:35:10.976Z,8.26
2023-02-14T00:37:40.990Z,8.23
2023-02-14T00:40:08.704Z,8.21
2023-02-14T00:42:35.521Z,8.22
2023-02-14T00:45:02.129Z,8.25
2023-02-14T00:47:28.751Z,8.24
2023-02-14T00:49:55.381Z,8.17
2023-02-14T00:52:22.052Z,8.17
2023-02-14T00:54:49.278Z,8.21
2023-02-14T00:57:15.894Z,8.23
2023-02-14T00:59:42.671Z,8.24
2023-02-14T01:02:09.484Z,8.18
2023-02-14T01:04:36.201Z,8.16
2023-02-14T01:07:03.357Z,8.16
2023-02-14T01:09:30.078Z,8.11
2023-02-14T01:11:56.698Z,8.11
2023-02-14T01:14:23.285Z,8.08
2023-02-14T01:16:50.139Z,8.07
2023-02-14T01:19:17.015Z,8.06
2023-02-14T01:21:43.862Z,8.00
2023-02-14T01:24:12.491Z,8.00
2023-02-14T01:26:41.282Z,8.02
2023-02-14T01:29:09.171Z,8.10
2023-02-14T01:31:36.462Z,8.16
2023-02-14T01:34:04.120Z,8.13
2023-02-14T01:36:33.924Z,8.14
2023-02-14T01:39:04.556Z,8.10
2023-02-14T01:41:34.524Z,8.05
2023-02-14T01:44:15.388Z,7.95
2023-02-14T01:46:43.984Z,7.94
2023-02-14T01:49:27.413Z,7.94
2023-02-14T01:52:04.113Z,7.97
2023-02-14T01:54:33.120Z,8.01
2023-02-14T01:57:05.354Z,8.00
2023-02-14T01:59:36.713Z,7.92
2023-02-14T02:02:04.816Z,7.83
2023-02-14T02:04:41.283Z,7.80
2023-02-14T02:07:12.513Z,7.82
2023-02-14T02:09:51.419Z,7.82
2023-02-14T02:12:18.362Z,7.86
2023-02-14T02:14:45.530Z,7.89
2023-02-14T02:17:39.719Z,7.88
2023-02-14T02:20:52.876Z,7.85
2023-02-14T02:23:48.405Z,7.79
2023-02-14T02:26:43.113Z,7.76
2023-02-14T02:29:32.025Z,7.71
2023-02-14T02:32:27.763Z,7.68
2023-02-14T02:35:25.177Z,7.64
2023-02-14T02:38:14.890Z,7.65
2023-02-14T02:40:51.955Z,7.66
2023-02-14T02:43:21.395Z,7.67
2023-02-14T02:46:17.498Z,7.66
2023-02-14T02:49:01.407Z,7.57
2023-02-14T02:51:55.987Z,7.61
2023-02-14T02:54:46.527Z,7.51
2023-02-14T02:57:21.875Z,7.45
2023-02-14T02:59:52.090Z,7.37
2023-02-14T03:02:28.272Z,7.32
2023-02-14T03:04:58.594Z,7.27
2023-02-14T03:07:39.262Z,7.27
2023-02-14T03:10:25.195Z,7.26
2023-02-14T03:13:20.357Z,7.28
2023-02-14T03:16:06.627Z,7.29
2023-02-14T03:19:01.291Z,7.34
2023-02-14T03:21:54.526Z,7.37
2023-02-14T03:24:39.114Z,7.35
2023-02-14T03:27:15.113Z,7.38
2023-02-14T03:29:58.792Z,7.41
2023-02-14T03:32:39.561Z,7.47
2023-02-14T03:35:12.384Z,7.49
2023-02-14T03:37:46.132Z,7.49
2023-02-14T03:40:21.559Z,7.48
2023-02-14T03:43:02.686Z,7.49
2023-02-14T03:45:41.864Z,7.49
2023-02-14T03:48:13.081Z,7.54
2023-02-14T03:50:43.882Z,7.58
2023-02-14T03:53:12.745Z,7.65
2023-02-14T03:56:10.747Z,7.60
2023-02-14T03:58:40.401Z,7.63
2023-02-14T04:01:34.352Z,7.64
2023-02-14T04:04:02.969Z,7.65
2023-02-14T04:06:29.709Z,7.68
2023-02-14T04:08:56.386Z,7.67
2023-02-14T04:11:24.511Z,7.64
2023-02-14T04:13:51.356Z,7.69
2023-02-14T04:16:18.064Z,7.72
2023-02-14T04:19:03.336Z,7.70
2023-02-14T04:21:29.990Z,7.68
2023-02-14T04:23:56.618Z,7.69
2023-02-14T04:26:23.271Z,7.72
2023-02-14T04:28:49.885Z,7.70
2023-02-14T04:31:17.437Z,7.72
2023-02-14T04:33:45.990Z,7.67
2023-02-14T04:36:12.664Z,7.67
2023-02-14T04:38:39.717Z,7.63
2023-02-14T04:41:06.513Z,7.63
2023-02-14T04:43:33.201Z,7.61
2023-02-14T04:45:59.888Z,7.58
2023-02-14T04:48:26.538Z,7.55
2023-02-14T04:50:54.641Z,7.50
2023-02-14T04:53:21.742Z,7.49
2023-02-14T04:55:49.834Z,7.48
2023-02-14T04:58:17.043Z,7.42
2023-02-14T05:00:43.763Z,7.35
2023-02-14T05:03:10.435Z,7.36
2023-02-14T05:05:37.114Z,7.36
2023-02-14T05:08:03.775Z,7.35
2023-02-14T05:10:30.447Z,7.34
2023-02-14T05:12:57.097Z,7.37
2023-02-14T05:15:23.702Z,7.36
2023-02-14T05:17:50.290Z,7.33
2023-02-14T05:20:17.085Z,7.28
2023-02-14T05:22:43.729Z,7.16
2023-02-14T05:25:10.437Z,7.16
2023-02-14T05:27:37.115Z,7.24
2023-02-14T05:30:07.182Z,7.25
2023-02-14T05:32:33.909Z,7.17
2023-02-14T05:35:01.313Z,7.22
2023-02-14T05:37:28.185Z,7.18
2023-02-14T05:39:54.830Z,7.21
2023-02-14T05:42:21.725Z,7.14
2023-02-14T05:44:49.065Z,7.16
2023-02-14T05:47:15.807Z,7.20
2023-02-14T05:49:42.439Z,7.21
2023-02-14T05:52:09.810Z,7.23
2023-02-14T05:54:36.672Z,7.22
2023-02-14T05:57:03.429Z,7.17
2023-02-14T05:59:30.040Z,7.24
2023-02-14T06:01:56.684Z,7.23
2023-02-14T06:04:23.396Z,7.22
2023-02-14T06:06:50.081Z,7.26
2023-02-14T06:09:16.767Z,7.27
2023-02-14T06:11:43.384Z,7.30
2023-02-14T06:14:10.051Z,7.29
2023-02-14T06:16:36.818Z,7.26
2023-02-14T06:19:03.536Z,7.22
2023-02-14T06:21:30.589Z,7.20
2023-02-14T06:23:57.296Z,7.22
2023-02-14T06:26:27.789Z,7.22
2023-02-14T06:28:59.041Z,7.23
2023-02-14T06:31:26.193Z,7.24
2023-02-14T06:33:53.922Z,7.21
2023-02-14T06:36:21.720Z,7.23
2023-02-14T06:38:49.356Z,7.18
2023-02-14T06:41:19.654Z,7.19
2023-02-14T06:43:50.545Z,7.22
2023-02-14T06:46:18.847Z,7.17
2023-02-14T06:48:46.037Z,7.14
2023-02-14T06:51:13.138Z,7.17
2023-02-14T06:53:40.429Z,7.15
2023-02-14T06:56:07.552Z,7.10
2023-02-14T06:58:34.382Z,6.93
2023-02-14T07:01:01.613Z,7.08
2023-02-14T07:03:28.899Z,7.16
2023-02-14T07:05:57.966Z,7.13
2023-02-14T07:08:26.229Z,7.22
2023-02-14T07:10:57.607Z,7.14
2023-02-14T07:13:25.398Z,7.17
2023-02-14T07:15:52.288Z,7.17
2023-02-14T07:18:19.123Z,7.19
2023-02-14T07:20:46.036Z,7.08
2023-02-14T07:23:12.836Z,7.22
2023-02-14T07:25:40.732Z,7.32
2023-02-14T07:28:07.744Z,7.52
2023-02-14T07:30:34.869Z,7.71
2023-02-14T07:33:01.714Z,7.65
2023-02-14T07:35:28.541Z,7.91
2023-02-14T07:37:55.357Z,8.14
2023-02-14T07:40:22.086Z,8.33
2023-02-14T07:42:55.982Z,8.71
2023-02-14T07:45:24.070Z,9.11
2023-02-14T07:47:52.704Z,9.70
2023-02-14T07:50:20.002Z,10.40
2023-02-14T07:52:47.254Z,10.71
2023-02-14T07:55:13.933Z,10.95
2023-02-14T07:57:40.580Z,11.46
2023-02-14T08:00:08.052Z,11.97
2023-02-14T08:02:38.687Z,12.44
2023-02-14T08:05:05.709Z,13.02
2023-02-14T08:07:32.363Z,13.07
2023-02-14T08:09:59.059Z,13.15
2023-02-14T08:12:47.306Z,13.15
2023-02-14T08:15:32.783Z,13.45
2023-02-14T08:17:59.475Z,13.39
2023-02-14T08:20:26.200Z,13.24
2023-02-14T08:22:52.845Z,12.88
2023-02-14T08:25:19.462Z,13.74
2023-02-14T08:27:46.061Z,14.26
2023-02-14T08:30:13.289Z,14.36
2023-02-14T08:32:40.072Z,14.04
2023-02-14T08:35:07.563Z,13.81
2023-02-14T08:37:34.180Z,14.07
2023-02-14T08:40:00.854Z,14.34
2023-02-14T08:42:27.556Z,14.90
2023-02-14T08:44:54.114Z,14.71
2023-02-14T08:47:21.165Z,15.33
2023-02-14T08:49:47.856Z,15.76
2023-02-14T08:52:14.453Z,17.06
2023-02-14T08:54:41.069Z,18.29
2023-02-14T08:57:07.782Z,19.02
2023-02-14T08:59:34.491Z,19.18
2023-02-14T09:02:01.141Z,19.34
2023-02-14T09:04:27.925Z,19.07
2023-02-14T09:06:54.692Z,18.80
2023-02-14T09:09:21.342Z,19.67
2023-02-14T09:11:48.003Z,19.84
2023-02-14T09:14:17.305Z,20.12
2023-02-14T09:16:44.076Z,20.87
2023-02-14T09:19:11.427Z,21.82
2023-02-14T09:21:38.141Z,22.32
2023-02-14T09:24:04.838Z,23.15
2023-02-14T09:26:32.548Z,25.00
2023-02-14T09:28:59.207Z,25.41
2023-02-14T09:31:25.963Z,25.78
2023-02-14T09:33:52.814Z,26.55
2023-02-14T09:36:37.905Z,26.59
2023-02-14T09:39:04.839Z,27.01
2023-02-14T09:42:00.716Z,25.43
2023-02-14T09:44:34.256Z,25.45
2023-02-14T09:47:18.839Z,27.48
2023-02-14T09:49:47.258Z,28.04
2023-02-14T09:52:18.603Z,29.13
2023-02-14T09:54:51.110Z,29.57
2023-02-14T09:57:31.615Z,30.63
2023-02-14T10:00:14.524Z,31.03
2023-02-14T10:03:09.239Z,31.42
2023-02-14T10:06:06.247Z,31.48
2023-02-14T10:08:54.798Z,31.07
2023-02-14T10:11:24.833Z,31.10
2023-02-14T10:14:05.173Z,31.82
2023-02-14T10:16:36.776Z,31.31
2023-02-14T10:19:19.736Z,31.58
2023-02-14T10:22:03.814Z,31.72
2023-02-14T10:24:37.431Z,31.59
2023-02-14T10:27:30.886Z,31.44
2023-02-14T10:29:57.600Z,30.51
2023-02-14T10:32:37.714Z,30.65
2023-02-14T10:35:26.851Z,30.44
2023-02-14T10:38:17.264Z,30.77
2023-02-14T10:41:13.381Z,31.21
2023-02-14T10:43:49.266Z,32.01
2023-02-14T10:46:33.195Z,31.94
2023-02-14T10:49:15.025Z,31.94
2023-02-14T10:51:49.377Z,32.97
2023-02-14T10:54:19.048Z,31.49
2023-02-14T10:57:06.733Z,32.17
2023-02-14T10:59:39.236Z,32.44
2023-02-14T11:02:09.142Z,33.28
2023-02-14T11:04:35.952Z,32.64
2023-02-14T11:07:02.612Z,31.58
2023-02-14T11:09:29.330Z,31.87
2023-02-14T11:12:00.075Z,32.65
2023-02-14T11:14:31.486Z,33.55
2023-02-14T11:16:59.431Z,33.64
2023-02-14T11:19:37.176Z,34.15
2023-02-14T11:22:04.632Z,33.25
2023-02-14T11:24:36.878Z,34.04
2023-02-14T11:27:12.592Z,34.72
2023-02-14T11:29:39.269Z,35.32
2023-02-14T11:32:25.362Z,35.19
2023-02-14T11:35:18.912Z,35.63
2023-02-14T11:37:54.312Z,36.03
2023-02-14T11:40:30.603Z,35.28
2023-02-14T11:43:13.357Z,36.43
2023-02-14T11:45:47.276Z,35.80
2023-02-14T11:48:37.659Z,35.59
2023-02-14T11:51:14.641Z,34.91
2023-02-14T11:53:48.992Z,35.32
2023-02-14T11:56:17.867Z,36.98
2023-02-14T11:58:44.448Z,37.72
2023-02-14T12:01:25.710Z,38.05
2023-02-14T12:03:55.497Z,36.22
2023-02-14T12:06:25.236Z,36.26
2023-02-14T12:08:52.466Z,35.00
2023-02-14T12:11:19.291Z,33.87
2023-02-14T12:13:57.176Z,34.79
2023-02-14T12:16:31.560Z,33.50
2023-02-14T12:19:13.163Z,32.85
2023-02-14T12:22:05.023Z,33.94
2023-02-14T12:24:49.191Z,33.34
2023-02-14T12:27:20.090Z,33.65
2023-02-14T12:30:02.069Z,31.90
2023-02-14T12:32:31.847Z,32.06
2023-02-14T12:35:04.316Z,31.63
2023-02-14T12:37:48.743Z,30.93
2023-02-14T12:40:31.548Z,29.18
2023-02-14T12:43:24.319Z,27.68
2023-02-14T12:45:59.752Z,27.48
2023-02-14T12:48:47.845Z,26.30
2023-02-14T12:51:29.943Z,24.82
2023-02-14T12:54:31.759Z,23.69
2023-02-14T12:57:33.256Z,23.45
2023-02-14T13:00:15.042Z,22.73
2023-02-14T13:02:41.766Z,22.17
2023-02-14T13:05:42.797Z,21.56
2023-02-14T13:08:27.789Z,21.80
2023-02-14T13:11:06.465Z,21.86
2023-02-14T13:13:39.565Z,21.33
2023-02-14T13:16:18.210Z,21.00
2023-02-14T13:19:06.364Z,21.04
2023-02-14T13:21:37.362Z,20.71
2023-02-14T13:24:15.183Z,20.72
2023-02-14T13:26:45.156Z,20.74
2023-02-14T13:29:23.564Z,20.61
2023-02-14T13:31:56.636Z,20.39
2023-02-14T13:34:32.848Z,20.27
2023-02-14T13:37:02.531Z,20.25
2023-02-14T13:39:38.675Z,19.83
2023-02-14T13:42:06.631Z,19.71
2023-02-14T13:44:45.343Z,19.83
2023-02-14T13:47:18.504Z,19.69
2023-02-14T13:49:55.356Z,19.50
2023-02-14T13:52:46.071Z,19.46
2023-02-14T13:55:20.238Z,19.59
2023-02-14T13:58:03.706Z,19.39
2023-02-14T14:00:40.749Z,19.42
2023-02-14T14:03:13.640Z,19.35
2023-02-14T14:05:43.668Z,19.40
2023-02-14T14:08:17.825Z,19.42
2023-02-14T14:10:45.765Z,19.51
2023-02-14T14:13:50.774Z,19.45
2023-02-14T14:16:29.250Z,19.62
2023-02-14T14:19:04.707Z,19.40
2023-02-14T14:21:34.303Z,19.52
2023-02-14T14:24:22.746Z,19.11
2023-02-14T14:27:02.787Z,19.26
2023-02-14T14:29:35.482Z,19.34
2023-02-14T14:32:24.582Z,19.43
2023-02-14T14:34:53.745Z,19.38
2023-02-14T14:37:24.213Z,19.43
2023-02-14T14:39:53.486Z,19.63
2023-02-14T14:42:21.659Z,19.56
2023-02-14T14:45:01.756Z,19.54
2023-02-14T14:47:37.348Z,19.54
2023-02-14T14:50:10.186Z,19.67
2023-02-14T14:52:43.735Z,19.62
2023-02-14T14:55:21.668Z,19.54
2023-02-14T14:57:54.952Z,19.41
2023-02-14T15:00:33.361Z,19.49
2023-02-14T15:03:12.141Z,19.40
2023-02-14T15:05:41.546Z,19.31
2023-02-14T15:08:15.245Z,19.22
2023-02-14T15:10:43.070Z,19.16
2023-02-14T15:13:32.547Z,19.10
2023-02-14T15:16:01.809Z,18.98
2023-02-14T15:18:29.470Z,19.02
2023-02-14T15:20:56.235Z,18.83
2023-02-14T15:23:24.798Z,18.66
2023-02-14T15:25:52.263Z,18.64
2023-02-14T15:28:35.743Z,18.66
2023-02-14T15:31:05.294Z,18.72
2023-02-14T15:33:33.884Z,18.75
2023-02-14T15:36:08.042Z,18.56
2023-02-14T15:38:41.717Z,18.41
2023-02-14T15:41:09.624Z,18.28
2023-02-14T15:43:37.581Z,18.20
2023-02-14T15:46:19.590Z,18.05
2023-02-14T15:48:47.064Z,18.01
2023-02-14T15:51:24.480Z,17.93
2023-02-14T15:53:59.450Z,17.89
2023-02-14T15:56:33.385Z,17.68
2023-02-14T15:59:17.158Z,17.61
2023-02-14T16:01:52.535Z,17.49
2023-02-14T16:04:24.338Z,17.40
2023-02-14T16:07:22.768Z,17.26
2023-02-14T16:09:51.289Z,17.21
2023-02-14T16:12:35.557Z,17.09
2023-02-14T16:15:16.758Z,16.92
2023-02-14T16:17:44.049Z,16.83
2023-02-14T16:20:22.715Z,16.75
2023-02-14T16:22:50.403Z,16.64
2023-02-14T16:25:17.066Z,16.48
2023-02-14T16:27:43.772Z,16.41
2023-02-14T16:30:19.732Z,16.28
2023-02-14T16:32:50.704Z,16.14
2023-02-14T16:35:20.900Z,16.10
2023-02-14T16:37:50.727Z,16.09
2023-02-14T16:40:20.970Z,16.04
2023-02-14T16:42:47.616Z,15.95
2023-02-14T16:45:16.592Z,15.65
2023-02-14T16:47:46.172Z,15.59
2023-02-14T16:50:13.032Z,15.56
2023-02-14T16:52:41.087Z,15.43
2023-02-14T16:55:15.561Z,15.31
2023-02-14T16:57:45.155Z,15.26
2023-02-14T17:00:12.853Z,15.21
2023-02-14T17:02:40.044Z,15.12
2023-02-14T17:05:07.570Z,15.04
2023-02-14T17:07:34.316Z,14.95
2023-02-14T17:10:06.225Z,14.91
2023-02-14T17:12:37.552Z,14.84
2023-02-14T17:15:10.736Z,14.78
2023-02-14T17:17:37.693Z,14.72
2023-02-14T17:20:08.258Z,14.64
2023-02-14T17:22:36.611Z,14.59
2023-02-14T17:25:05.312Z,14.48
2023-02-14T17:27:35.314Z,14.36
2023-02-14T17:30:02.082Z,14.18
2023-02-14T17:32:28.897Z,14.06
2023-02-14T17:34:56.370Z,14.11
2023-02-14T17:37:23.149Z,13.88
2023-02-14T17:39:49.840Z,13.82
2023-02-14T17:42:16.455Z,13.75
2023-02-14T17:44:43.111Z,13.60
2023-02-14T17:47:09.723Z,13.56
2023-02-14T17:49:36.433Z,13.59
2023-02-14T17:52:03.192Z,13.54
2023-02-14T17:54:29.810Z,13.54
2023-02-14T17:56:56.688Z,13.51
2023-02-14T17:59:24.221Z,13.33
2023-02-14T18:01:51.235Z,13.29
2023-02-14T18:04:17.904Z,13.25
2023-02-14T18:06:44.629Z,13.18
2023-02-14T18:09:11.256Z,13.12
2023-02-14T18:11:39.797Z,13.09
2023-02-14T18:14:06.442Z,12.72
2023-02-14T18:16:33.228Z,12.83
2023-02-14T18:19:04.709Z,12.77
2023-02-14T18:21:36.311Z,12.72
2023-02-14T18:24:03.962Z,12.67
2023-02-14T18:26:30.811Z,12.56
2023-02-14T18:28:57.898Z,12.55
2023-02-14T18:31:26.317Z,12.35
2023-02-14T18:33:53.000Z,12.25
2023-02-14T18:36:24.223Z,12.15
2023-02-14T18:38:50.908Z,12.19
2023-02-14T18:41:19.908Z,12.02
2023-02-14T18:43:48.844Z,12.03
2023-02-14T18:46:18.350Z,11.97
2023-02-14T18:48:45.084Z,11.79
2023-02-14T18:51:15.372Z,11.64
2023-02-14T18:53:43.443Z,11.56
2023-02-14T18:56:13.563Z,11.51
2023-02-14T18:58:42.946Z,11.53
2023-02-14T19:01:11.640Z,11.51
2023-02-14T19:03:39.184Z,11.38
2023-02-14T19:06:06.528Z,11.38
2023-02-14T19:08:35.021Z,11.31
2023-02-14T19:11:02.827Z,10.99
2023-02-14T19:13:32.118Z,11.12
2023-02-14T19:15:59.757Z,11.23
2023-02-14T19:18:26.978Z,11.24
2023-02-14T19:20:53.618Z,11.26
2023-02-14T19:23:20.227Z,11.05
2023-02-14T19:25:46.920Z,11.12
2023-02-14T19:28:13.588Z,11.11
2023-02-14T19:30:40.322Z,11.07
2023-02-14T19:33:06.992Z,11.00
2023-02-14T19:35:33.688Z,11.03
2023-02-14T19:38:03.357Z,10.89
2023-02-14T19:40:30.782Z,10.93
2023-02-14T19:42:57.764Z,10.74
2023-02-14T19:45:24.486Z,10.64
2023-02-14T19:47:51.094Z,10.76
2023-02-14T19:50:20.307Z,10.57
2023-02-14T19:52:47.135Z,10.39
2023-02-14T19:55:22.380Z,10.49
2023-02-14T19:57:49.250Z,10.50
2023-02-14T20:00:16.601Z,10.44
2023-02-14T20:02:47.909Z,10.41
2023-02-14T20:05:18.612Z,10.40
2023-02-14T20:07:49.032Z,10.29
2023-02-14T20:10:16.022Z,10.24
2023-02-14T20:12:42.671Z,10.12
2023-02-14T20:15:10.972Z,9.77
2023-02-14T20:17:43.739Z,9.83
2023-02-14T20:23:20.647Z,9.63
2023-02-14T20:25:47.375Z,9.62
2023-02-14T20:28:14.109Z,9.51
2023-02-14T20:30:40.748Z,9.51
2023-02-14T20:33:07.410Z,9.43
2023-02-14T20:35:38.038Z,9.13
2023-02-14T20:38:07.774Z,8.96
2023-02-14T20:40:39.278Z,8.99
2023-02-14T20:43:06.262Z,8.83
2023-02-14T20:45:33.102Z,8.81
2023-02-14T20:48:03.992Z,8.85
2023-02-14T20:50:31.253Z,8.54
2023-02-14T20:52:58.309Z,8.69
2023-02-14T20:55:27.054Z,8.69
2023-02-14T20:57:54.206Z,8.71
2023-02-14T21:00:21.129Z,8.87
2023-02-14T21:02:47.833Z,8.82
2023-02-14T21:05:18.361Z,8.75
2023-02-14T21:07:45.077Z,8.77
2023-02-14T21:10:11.864Z,8.78
2023-02-14T21:12:38.661Z,8.80
2023-02-14T21:15:06.985Z,8.68
2023-02-14T21:17:33.956Z,8.70
2023-02-14T21:20:00.725Z,8.42
2023-02-14T21:22:27.445Z,8.27
2023-02-14T21:24:54.084Z,8.21
2023-02-14T21:27:20.772Z,8.13
2023-02-14T21:29:47.522Z,7.79
2023-02-14T21:32:14.801Z,7.63
2023-02-14T21:34:41.530Z,7.45
2023-02-14T21:37:08.165Z,7.50
2023-02-14T21:39:37.850Z,7.48
2023-02-14T21:42:07.468Z,7.50
2023-02-14T21:44:53.607Z,7.38
2023-02-14T21:47:20.239Z,7.39
2023-02-14T21:50:05.522Z,7.35
2023-02-14T21:52:32.198Z,7.46
2023-02-14T21:54:58.845Z,7.47
2023-02-14T21:57:25.998Z,7.34
2023-02-14T21:59:52.702Z,7.38
2023-02-14T22:02:19.362Z,7.36
2023-02-14T22:04:46.314Z,7.40
2023-02-14T22:07:13.100Z,7.30
2023-02-14T22:09:39.807Z,7.29
2023-02-14T22:12:06.754Z,7.34
2023-02-14T22:14:33.431Z,7.37
2023-02-14T22:17:00.072Z,7.26
2023-02-14T22:19:26.828Z,7.16
2023-02-14T22:21:53.482Z,7.26
2023-02-14T22:24:20.183Z,7.40
2023-02-14T22:26:46.826Z,7.45
2023-02-14T22:29:13.492Z,7.30
2023-02-14T22:31:42.496Z,7.33
2023-02-14T22:34:11.319Z,7.32
2023-02-14T22:36:38.088Z,7.29
2023-02-14T22:39:05.838Z,7.18
2023-02-14T22:41:37.560Z,7.20
2023-02-14T22:44:04.744Z,7.13
2023-02-14T22:46:31.667Z,7.02
2023-02-14T22:48:58.658Z,7.14
2023-02-14T22:51:25.254Z,7.10
2023-02-14T22:53:54.422Z,7.27
2023-02-14T22:56:30.888Z,7.27
2023-02-14T22:58:59.713Z,7.39
2023-02-14T23:01:26.887Z,7.39
2023-02-14T23:03:55.555Z,7.42
2023-02-14T23:06:26.869Z,7.29
2023-02-14T23:08:53.857Z,7.35
2023-02-14T23:11:26.917Z,7.45
2023-02-14T23:14:12.660Z,7.54
2023-02-14T23:16:57.967Z,7.59
2023-02-14T23:19:47.293Z,7.61
2023-02-14T23:22:19.363Z,7.45
2023-02-14T23:24:47.844Z,7.52
2023-02-14T23:27:15.462Z,7.41
2023-02-14T23:29:42.157Z,7.36
2023-02-14T23:32:09.437Z,7.33
2023-02-14T23:34:38.980Z,7.33
2023-02-14T23:37:06.236Z,7.39
2023-02-14T23:39:35.725Z,7.38
2023-02-14T23:42:06.804Z,7.50
2023-02-14T23:44:34.120Z,7.57
2023-02-14T23:47:04.285Z,7.60
2023-02-14T23:49:33.068Z,7.64
2023-02-14T23:52:00.217Z,7.55
2023-02-14T23:54:26.967Z,7.46
2023-02-14T23:56:54.840Z,7.43
2023-02-14T23:59:22.151Z,7.42
